createdAt,value
2017-12-12T00:00:25.994Z,95035.61
2017-12-12T00:00:57.636Z,95027.95
2017-12-12T00:01:29.275Z,95041.68
2017-12-12T00:02:00.920Z,95056.16
2017-12-12T00:02:32.559Z,95062.03
2017-12-12T00:03:04.204Z,95058.39
2017-12-12T00:03:35.845Z,95042.23
2017-12-12T00:04:07.484Z,95033.72
2017-12-12T00:04:39.127Z,95036.42
2017-12-12T00:05:10.770Z,95036.47
2017-12-12T00:05:42.414Z,95044.07
2017-12-12T00:06:14.052Z,95033.02
2017-12-12T00:06:45.695Z,95026.39
2017-12-12T00:07:17.335Z,95023.72
2017-12-12T00:07:48.999Z,95034.94
2017-12-12T00:08:20.687Z,95048.96
2017-12-12T00:08:52.316Z,95056.53
2017-12-12T00:09:23.941Z,95059.53
2017-12-12T00:09:55.566Z,95061.42
2017-12-12T00:10:27.198Z,95046.42
2017-12-12T00:10:59.091Z,95040.16
2017-12-12T00:11:30.782Z,95045.81
2017-12-12T00:12:02.420Z,95047.66
2017-12-12T00:12:34.062Z,95049.06
2017-12-12T00:13:05.704Z,95051.28
2017-12-12T00:13:37.380Z,95048.81
2017-12-12T00:14:09.002Z,95047.70
2017-12-12T00:14:40.833Z,95051.48
2017-12-12T00:15:12.582Z,95051.52
2017-12-12T00:15:44.223Z,95060.86
2017-12-12T00:16:15.862Z,95066.56
2017-12-12T00:16:47.505Z,95069.48
2017-12-12T00:17:19.127Z,95074.10
2017-12-12T00:17:50.792Z,95074.77
2017-12-12T00:18:22.430Z,95073.03
2017-12-12T00:18:54.098Z,95084.72
2017-12-12T00:19:25.721Z,95084.16
2017-12-12T00:19:57.359Z,95083.33
2017-12-12T00:20:28.998Z,95082.99
2017-12-12T00:21:00.642Z,95076.95
2017-12-12T00:21:32.282Z,95082.92
2017-12-12T00:22:03.924Z,95085.02
2017-12-12T00:22:35.568Z,95092.26
2017-12-12T00:23:07.208Z,95090.48
2017-12-12T00:23:38.854Z,95089.09
2017-12-12T00:24:10.542Z,95085.64
2017-12-12T00:24:42.169Z,95087.66
2017-12-12T00:25:13.790Z,95083.95
2017-12-12T00:25:45.656Z,95088.86
2017-12-12T00:26:17.283Z,95090.02
2017-12-12T00:26:49.013Z,95089.11
2017-12-12T00:27:20.653Z,95085.17
2017-12-12T00:27:52.283Z,95078.30
2017-12-12T00:28:23.937Z,95076.36
2017-12-12T00:28:55.575Z,95072.84
2017-12-12T00:29:27.238Z,95063.55
2017-12-12T00:29:59.064Z,95058.66
2017-12-12T00:30:30.812Z,95072.23
2017-12-12T00:31:02.453Z,95064.02
2017-12-12T00:31:34.092Z,95069.12
2017-12-12T00:32:05.763Z,95069.12
2017-12-12T00:32:37.390Z,95062.33
2017-12-12T00:33:09.254Z,95065.17
2017-12-12T00:33:40.878Z,95065.95
2017-12-12T00:34:12.665Z,95066.11
2017-12-12T00:34:44.271Z,95072.42
2017-12-12T00:35:15.902Z,95070.13
2017-12-12T00:35:47.536Z,95075.48
2017-12-12T00:36:19.202Z,95068.03
2017-12-12T00:36:51.092Z,95075.84
2017-12-12T00:37:22.722Z,95068.64
2017-12-12T00:37:54.352Z,95067.44
2017-12-12T00:38:25.987Z,95067.94
2017-12-12T00:38:57.606Z,95067.48
2017-12-12T00:39:29.338Z,95066.77
2017-12-12T00:40:00.970Z,95068.84
2017-12-12T00:40:32.618Z,95070.19
2017-12-12T00:41:04.261Z,95072.83
2017-12-12T00:41:35.922Z,95077.18
2017-12-12T00:42:07.856Z,95079.02
2017-12-12T00:42:39.497Z,95085.33
2017-12-12T00:43:11.141Z,95090.84
2017-12-12T00:43:42.786Z,95088.99
2017-12-12T00:44:14.422Z,95087.17
2017-12-12T00:44:46.062Z,95099.77
2017-12-12T00:45:17.703Z,95106.66
2017-12-12T00:45:49.346Z,95108.28
2017-12-12T00:46:21.023Z,95109.70
2017-12-12T00:46:52.658Z,95115.48
2017-12-12T00:47:24.286Z,95107.98
2017-12-12T00:47:56.223Z,95114.61
2017-12-12T00:48:27.864Z,95107.86
2017-12-12T00:48:59.504Z,95110.30
2017-12-12T00:49:31.148Z,95110.67
2017-12-12T00:50:02.791Z,95105.53
2017-12-12T00:50:34.430Z,95107.41
2017-12-12T00:51:06.071Z,95105.08
2017-12-12T00:51:38.254Z,95106.64
2017-12-12T00:52:09.878Z,95103.27
2017-12-12T00:52:41.615Z,95094.42
2017-12-12T00:53:13.298Z,95085.04
2017-12-12T00:53:44.918Z,95089.24
2017-12-12T00:54:16.557Z,95091.34
2017-12-12T00:54:48.414Z,95092.44
2017-12-12T00:55:20.042Z,95092.07
2017-12-12T00:55:51.774Z,95091.36
2017-12-12T00:56:23.418Z,95097.25
2017-12-12T00:56:55.365Z,95099.42
2017-12-12T00:57:27.003Z,95102.88
2017-12-12T00:57:58.648Z,95101.56
2017-12-12T00:58:30.334Z,95104.98
2017-12-12T00:59:02.203Z,95103.75
2017-12-12T00:59:33.831Z,95105.43
2017-12-12T01:00:05.462Z,95102.17
2017-12-12T01:00:37.082Z,95105.47
2017-12-12T01:01:08.711Z,95107.98
2017-12-12T01:01:40.453Z,95107.16
2017-12-12T01:02:12.075Z,95111.39
2017-12-12T01:02:43.730Z,95112.78
2017-12-12T01:03:15.681Z,95115.01
2017-12-12T01:03:47.351Z,95117.67
2017-12-12T01:04:19.239Z,95110.77
2017-12-12T01:04:50.865Z,95117.52
2017-12-12T01:05:22.494Z,95112.61
2017-12-12T01:05:54.126Z,95122.20
2017-12-12T01:06:25.746Z,95118.67
2017-12-12T01:06:57.482Z,95118.63
2017-12-12T01:07:29.120Z,95118.50
2017-12-12T01:08:01.082Z,95125.66
2017-12-12T01:08:32.730Z,95123.67
2017-12-12T01:09:04.486Z,95127.55
2017-12-12T01:09:36.118Z,95127.88
2017-12-12T01:10:07.946Z,95134.13
2017-12-12T01:10:39.586Z,95132.45
2017-12-12T01:11:11.231Z,95130.38
2017-12-12T01:11:42.872Z,95129.90
2017-12-12T01:12:14.516Z,95134.91
2017-12-12T01:12:46.154Z,95139.19
2017-12-12T01:13:17.799Z,95137.87
2017-12-12T01:13:49.441Z,95134.70
2017-12-12T01:14:21.080Z,95132.34
2017-12-12T01:14:52.754Z,95139.25
2017-12-12T01:15:24.382Z,95142.29
2017-12-12T01:15:56.026Z,95139.50
2017-12-12T01:16:27.958Z,95134.45
2017-12-12T01:16:59.597Z,95138.23
2017-12-12T01:17:31.238Z,95146.95
2017-12-12T01:18:02.884Z,95142.50
2017-12-12T01:18:34.525Z,95146.67
2017-12-12T01:19:06.483Z,95155.55
2017-12-12T01:19:38.130Z,95154.39
2017-12-12T01:20:09.803Z,95155.67
2017-12-12T01:20:41.426Z,95167.48
2017-12-12T01:21:13.054Z,95167.19
2017-12-12T01:21:44.888Z,95176.11
2017-12-12T01:22:16.633Z,95180.80
2017-12-12T01:22:48.275Z,95176.89
2017-12-12T01:23:19.943Z,95182.78
2017-12-12T01:23:51.575Z,95185.25
2017-12-12T01:24:23.508Z,95177.19
2017-12-12T01:24:55.149Z,95180.71
2017-12-12T01:25:26.788Z,95185.25
2017-12-12T01:25:58.431Z,95184.80
2017-12-12T01:26:30.075Z,95181.09
2017-12-12T01:27:01.751Z,95183.19
2017-12-12T01:27:33.379Z,95182.85
2017-12-12T01:28:05.007Z,95183.87
2017-12-12T01:28:36.642Z,95178.89
2017-12-12T01:29:08.282Z,95187.55
2017-12-12T01:29:39.927Z,95185.94
2017-12-12T01:30:11.568Z,95178.81
2017-12-12T01:30:43.210Z,95181.85
2017-12-12T01:31:14.861Z,95177.13
2017-12-12T01:31:46.732Z,95176.30
2017-12-12T01:32:18.443Z,95180.05
2017-12-12T01:32:50.388Z,95178.25
2017-12-12T01:33:22.034Z,95180.38
2017-12-12T01:33:53.901Z,95180.38
2017-12-12T01:34:25.570Z,95183.05
2017-12-12T01:34:57.195Z,95175.85
2017-12-12T01:35:28.818Z,95183.09
2017-12-12T01:36:00.552Z,95184.41
2017-12-12T01:36:32.178Z,95193.59
2017-12-12T01:37:03.834Z,95206.70
2017-12-12T01:37:35.475Z,95209.70
2017-12-12T01:38:07.146Z,95220.02
2017-12-12T01:38:38.775Z,95226.95
2017-12-12T01:39:10.710Z,95228.75
2017-12-12T01:39:42.349Z,95232.36
2017-12-12T01:40:13.994Z,95232.40
2017-12-12T01:40:45.635Z,95228.16
2017-12-12T01:41:17.280Z,95230.15
2017-12-12T01:41:48.919Z,95239.81
2017-12-12T01:42:20.561Z,95238.58
2017-12-12T01:42:52.203Z,95231.97
2017-12-12T01:43:23.859Z,95239.63
2017-12-12T01:43:55.795Z,95238.80
2017-12-12T01:44:27.743Z,95239.88
2017-12-12T01:44:59.406Z,95242.44
2017-12-12T01:45:31.039Z,95250.95
2017-12-12T01:46:02.889Z,95249.75
2017-12-12T01:46:34.929Z,95249.60
2017-12-12T01:47:06.567Z,95257.41
2017-12-12T01:47:38.206Z,95259.01
2017-12-12T01:48:09.850Z,95265.02
2017-12-12T01:48:41.490Z,95268.27
2017-12-12T01:49:13.162Z,95263.80
2017-12-12T01:49:44.786Z,95269.69
2017-12-12T01:50:16.418Z,95271.95
2017-12-12T01:50:48.060Z,95268.20
2017-12-12T01:51:19.699Z,95267.26
2017-12-12T01:51:51.344Z,95271.16
2017-12-12T01:52:22.983Z,95271.61
2017-12-12T01:52:54.627Z,95272.62
2017-12-12T01:53:26.271Z,95264.48
2017-12-12T01:53:57.911Z,95270.25
2017-12-12T01:54:29.610Z,95270.88
2017-12-12T01:55:01.504Z,95268.45
2017-12-12T01:55:33.145Z,95272.34
2017-12-12T01:56:04.785Z,95270.74
2017-12-12T01:56:36.520Z,95270.03
2017-12-12T01:57:08.378Z,95273.03
2017-12-12T01:57:40.020Z,95273.55
2017-12-12T01:58:11.661Z,95280.19
2017-12-12T01:58:43.305Z,95283.23
2017-12-12T01:59:14.944Z,95291.63
2017-12-12T01:59:46.584Z,95294.78
2017-12-12T02:00:18.267Z,95288.82
2017-12-12T02:00:49.891Z,95282.11
2017-12-12T02:01:21.523Z,95277.66
2017-12-12T02:01:53.393Z,95282.63
2017-12-12T02:02:25.023Z,95280.27
2017-12-12T02:02:56.651Z,95277.42
2017-12-12T02:03:28.388Z,95274.05
2017-12-12T02:04:00.029Z,95276.93
2017-12-12T02:04:31.668Z,95274.91
2017-12-12T02:05:03.312Z,95277.20
2017-12-12T02:05:34.984Z,95275.92
2017-12-12T02:06:06.611Z,95272.52
2017-12-12T02:06:38.546Z,95275.10
2017-12-12T02:07:10.222Z,95274.35
2017-12-12T02:07:41.846Z,95275.52
2017-12-12T02:08:13.479Z,95280.27
2017-12-12T02:08:45.114Z,95279.26
2017-12-12T02:09:16.755Z,95284.36
2017-12-12T02:09:48.394Z,95282.22
2017-12-12T02:10:20.040Z,95280.80
2017-12-12T02:10:51.670Z,95281.51
2017-12-12T02:11:23.322Z,95286.56
2017-12-12T02:11:54.965Z,95278.09
2017-12-12T02:12:26.639Z,95272.70
2017-12-12T02:12:58.262Z,95272.70
2017-12-12T02:13:30.084Z,95274.27
2017-12-12T02:14:01.840Z,95275.05
2017-12-12T02:14:33.482Z,95280.64
2017-12-12T02:15:05.123Z,95277.08
2017-12-12T02:15:36.763Z,95284.95
2017-12-12T02:16:08.407Z,95290.47
2017-12-12T02:16:40.049Z,95290.70
2017-12-12T02:17:11.690Z,95293.66
2017-12-12T02:17:43.357Z,95294.52
2017-12-12T02:18:14.986Z,95293.28
2017-12-12T02:18:46.925Z,95295.95
2017-12-12T02:19:18.566Z,95293.44
2017-12-12T02:19:50.208Z,95296.36
2017-12-12T02:20:21.879Z,95295.05
2017-12-12T02:20:53.506Z,95297.63
2017-12-12T02:21:25.143Z,95299.66
2017-12-12T02:21:57.082Z,95292.72
2017-12-12T02:22:28.722Z,95287.85
2017-12-12T02:23:00.366Z,95297.27
2017-12-12T02:23:32.005Z,95299.97
2017-12-12T02:24:03.647Z,95296.28
2017-12-12T02:24:35.298Z,95292.01
2017-12-12T02:25:06.962Z,95302.25
2017-12-12T02:25:38.590Z,95302.10
2017-12-12T02:26:10.525Z,95301.95
2017-12-12T02:26:42.166Z,95300.23
2017-12-12T02:27:13.806Z,95310.02
2017-12-12T02:27:45.451Z,95308.00
2017-12-12T02:28:17.089Z,95309.16
2017-12-12T02:28:48.734Z,95311.63
2017-12-12T02:29:20.407Z,95309.04
2017-12-12T02:29:52.038Z,95309.34
2017-12-12T02:30:23.667Z,95305.22
2017-12-12T02:30:55.302Z,95308.06
2017-12-12T02:31:26.946Z,95305.59
2017-12-12T02:31:58.586Z,95304.43
2017-12-12T02:32:30.228Z,95306.60
2017-12-12T02:33:01.870Z,95305.33
2017-12-12T02:33:33.512Z,95311.59
2017-12-12T02:34:05.398Z,95310.77
2017-12-12T02:34:37.103Z,95306.19
2017-12-12T02:35:08.745Z,95306.27
2017-12-12T02:35:40.384Z,95301.58
2017-12-12T02:36:12.028Z,95302.55
2017-12-12T02:36:43.670Z,95293.30
2017-12-12T02:37:15.313Z,95299.33
2017-12-12T02:37:46.955Z,95297.27
2017-12-12T02:38:18.596Z,95296.66
2017-12-12T02:38:50.242Z,95294.12
2017-12-12T02:39:21.884Z,95296.59
2017-12-12T02:39:53.771Z,95295.24
2017-12-12T02:40:25.398Z,95295.80
2017-12-12T02:40:57.022Z,95297.49
2017-12-12T02:41:28.644Z,95298.05
2017-12-12T02:42:00.397Z,95303.83
2017-12-12T02:42:32.039Z,95306.87
2017-12-12T02:43:03.678Z,95308.11
2017-12-12T02:43:35.322Z,95309.48
2017-12-12T02:44:06.964Z,95316.31
2017-12-12T02:44:38.605Z,95319.02
2017-12-12T02:45:10.282Z,95316.47
2017-12-12T02:45:41.902Z,95317.33
2017-12-12T02:46:13.839Z,95314.93
2017-12-12T02:46:45.480Z,95313.66
2017-12-12T02:47:17.125Z,95311.30
2017-12-12T02:47:48.765Z,95310.35
2017-12-12T02:48:20.405Z,95310.69
2017-12-12T02:48:52.046Z,95306.98
2017-12-12T02:49:23.691Z,95310.43
2017-12-12T02:49:55.329Z,95311.85
2017-12-12T02:50:26.990Z,95310.12
2017-12-12T02:50:58.924Z,95314.36
2017-12-12T02:51:30.565Z,95314.41
2017-12-12T02:52:02.209Z,95310.80
2017-12-12T02:52:33.834Z,95311.10
2017-12-12T02:53:06.717Z,95317.33
2017-12-12T02:53:38.364Z,95310.16
2017-12-12T02:54:10.005Z,95307.20
2017-12-12T02:54:41.646Z,95312.00
2017-12-12T02:55:13.288Z,95312.86
2017-12-12T02:55:44.929Z,95314.63
2017-12-12T02:56:16.571Z,95314.55
2017-12-12T02:56:48.213Z,95319.43
2017-12-12T02:57:21.084Z,95320.22
2017-12-12T02:57:52.731Z,95325.98
2017-12-12T02:58:24.675Z,95328.17
2017-12-12T02:58:56.314Z,95336.80
2017-12-12T02:59:27.958Z,95330.23
2017-12-12T02:59:59.597Z,95333.30
2017-12-12T03:00:31.242Z,95331.88
2017-12-12T03:01:02.884Z,95345.64
2017-12-12T03:01:34.523Z,95341.78
2017-12-12T03:02:06.168Z,95346.33
2017-12-12T03:02:37.810Z,95349.70
2017-12-12T03:03:09.478Z,95349.25
2017-12-12T03:03:41.106Z,95351.76
2017-12-12T03:04:12.934Z,95353.11
2017-12-12T03:04:44.685Z,95351.58
2017-12-12T03:05:16.327Z,95351.95
2017-12-12T03:05:47.968Z,95352.39
2017-12-12T03:06:19.638Z,95345.91
2017-12-12T03:06:51.262Z,95351.91
2017-12-12T03:07:22.894Z,95348.95
2017-12-12T03:07:54.536Z,95344.37
2017-12-12T03:08:26.177Z,95345.30
2017-12-12T03:08:57.819Z,95342.30
2017-12-12T03:09:29.461Z,95335.00
2017-12-12T03:10:01.104Z,95340.43
2017-12-12T03:10:33.691Z,95338.52
2017-12-12T03:11:05.314Z,95339.34
2017-12-12T03:11:36.978Z,95337.13
2017-12-12T03:12:08.599Z,95344.33
2017-12-12T03:12:40.234Z,95337.73
2017-12-12T03:13:11.875Z,95348.80
2017-12-12T03:13:43.518Z,95350.59
2017-12-12T03:14:15.160Z,95357.94
2017-12-12T03:14:46.802Z,95355.39
2017-12-12T03:15:18.463Z,95352.55
2017-12-12T03:15:50.091Z,95354.38
2017-12-12T03:16:21.727Z,95348.94
2017-12-12T03:16:53.368Z,95353.63
2017-12-12T03:17:25.012Z,95352.66
2017-12-12T03:17:56.655Z,95349.05
2017-12-12T03:18:28.295Z,95349.05
2017-12-12T03:18:59.937Z,95347.06
2017-12-12T03:19:31.563Z,95342.38
2017-12-12T03:20:03.194Z,95347.44
2017-12-12T03:20:36.162Z,95346.61
2017-12-12T03:21:07.842Z,95355.05
2017-12-12T03:21:39.658Z,95351.67
2017-12-12T03:22:11.282Z,95356.77
2017-12-12T03:22:42.910Z,95352.42
2017-12-12T03:23:14.534Z,95347.39
2017-12-12T03:23:46.166Z,95347.47
2017-12-12T03:24:17.798Z,95356.40
2017-12-12T03:24:49.535Z,95359.09
2017-12-12T03:25:21.176Z,95353.55
2017-12-12T03:25:52.819Z,95357.81
2017-12-12T03:26:24.481Z,95351.82
2017-12-12T03:26:56.342Z,95357.52
2017-12-12T03:27:27.967Z,95355.95
2017-12-12T03:27:59.642Z,95357.22
2017-12-12T03:28:31.271Z,95352.39
2017-12-12T03:29:02.899Z,95358.62
2017-12-12T03:29:35.074Z,95357.38
2017-12-12T03:30:06.703Z,95359.93
2017-12-12T03:30:38.331Z,95355.24
2017-12-12T03:31:09.960Z,95356.52
2017-12-12T03:31:41.805Z,95359.70
2017-12-12T03:32:13.442Z,95363.48
2017-12-12T03:32:45.103Z,95364.24
2017-12-12T03:33:16.925Z,95362.67
2017-12-12T03:33:48.676Z,95369.34
2017-12-12T03:34:20.317Z,95362.93
2017-12-12T03:34:51.956Z,95360.98
2017-12-12T03:35:23.604Z,95356.14
2017-12-12T03:35:55.243Z,95364.99
2017-12-12T03:36:26.884Z,95362.75
2017-12-12T03:36:58.527Z,95362.38
2017-12-12T03:37:30.169Z,95360.91
2017-12-12T03:38:01.833Z,95361.73
2017-12-12T03:38:33.502Z,95367.70
2017-12-12T03:39:05.138Z,95363.98
2017-12-12T03:39:36.762Z,95373.55
2017-12-12T03:40:08.426Z,95370.02
2017-12-12T03:40:40.051Z,95373.25
2017-12-12T03:41:11.674Z,95376.21
2017-12-12T03:41:43.549Z,95383.11
2017-12-12T03:42:15.175Z,95378.46
2017-12-12T03:42:46.798Z,95385.33
2017-12-12T03:43:18.537Z,95385.52
2017-12-12T03:43:50.194Z,95385.37
2017-12-12T03:44:21.870Z,95393.47
2017-12-12T03:44:53.494Z,95391.73
2017-12-12T03:45:25.130Z,95389.60
2017-12-12T03:45:56.763Z,95393.92
2017-12-12T03:46:28.394Z,95400.85
2017-12-12T03:47:00.338Z,95397.89
2017-12-12T03:47:31.979Z,95402.39
2017-12-12T03:48:03.621Z,95399.54
2017-12-12T03:48:35.263Z,95400.30
2017-12-12T03:49:06.905Z,95399.09
2017-12-12T03:49:38.569Z,95401.08
2017-12-12T03:50:10.199Z,95399.66
2017-12-12T03:50:41.834Z,95398.57
2017-12-12T03:51:13.482Z,95402.95
2017-12-12T03:51:45.171Z,95408.31
2017-12-12T03:52:16.794Z,95407.80
2017-12-12T03:52:48.666Z,95414.52
2017-12-12T03:53:20.586Z,95408.13
2017-12-12T03:53:52.206Z,95401.42
2017-12-12T03:54:23.939Z,95404.23
2017-12-12T03:54:55.577Z,95395.98
2017-12-12T03:55:27.221Z,95407.53
2017-12-12T03:55:58.863Z,95404.80
2017-12-12T03:56:30.505Z,95407.20
2017-12-12T03:57:02.184Z,95403.86
2017-12-12T03:57:33.806Z,95405.52
2017-12-12T03:58:05.625Z,95408.58
2017-12-12T03:58:37.381Z,95407.34
2017-12-12T03:59:09.022Z,95403.03
2017-12-12T03:59:40.664Z,95399.66
2017-12-12T04:00:12.326Z,95401.61
2017-12-12T04:00:44.558Z,95401.58
2017-12-12T04:01:16.205Z,95403.78
2017-12-12T04:01:47.846Z,95407.47
2017-12-12T04:02:19.518Z,95406.94
2017-12-12T04:02:51.150Z,95406.83
2017-12-12T04:03:22.778Z,95405.06
2017-12-12T04:03:54.414Z,95413.17
2017-12-12T04:04:26.052Z,95407.20
2017-12-12T04:04:57.699Z,95413.92
2017-12-12T04:05:29.344Z,95414.11
2017-12-12T04:06:01.179Z,95418.34
2017-12-12T04:06:32.834Z,95419.44
2017-12-12T04:07:04.501Z,95415.34
2017-12-12T04:07:36.127Z,95421.35
2017-12-12T04:08:07.859Z,95427.17
2017-12-12T04:08:39.496Z,95427.63
2017-12-12T04:09:11.140Z,95429.72
2017-12-12T04:09:42.782Z,95432.53
2017-12-12T04:10:14.403Z,95431.70
2017-12-12T04:10:46.034Z,95434.22
2017-12-12T04:11:17.662Z,95436.47
2017-12-12T04:11:49.290Z,95439.39
2017-12-12T04:12:21.259Z,95441.53
2017-12-12T04:12:53.130Z,95436.54
2017-12-12T04:13:24.890Z,95437.89
2017-12-12T04:13:56.532Z,95431.59
2017-12-12T04:14:28.174Z,95439.65
2017-12-12T04:14:59.816Z,95446.78
2017-12-12T04:15:31.456Z,95451.16
2017-12-12T04:16:03.099Z,95453.67
2017-12-12T04:16:34.743Z,95456.23
2017-12-12T04:17:06.383Z,95452.86
2017-12-12T04:17:38.051Z,95449.17
2017-12-12T04:18:09.671Z,95451.72
2017-12-12T04:18:41.308Z,95451.31
2017-12-12T04:19:12.951Z,95451.13
2017-12-12T04:19:44.592Z,95443.52
2017-12-12T04:20:16.235Z,95451.47
2017-12-12T04:20:47.877Z,95452.89
2017-12-12T04:21:19.526Z,95456.41
2017-12-12T04:21:51.160Z,95461.70
2017-12-12T04:22:22.822Z,95455.36
2017-12-12T04:22:54.451Z,95459.41
2017-12-12T04:23:26.082Z,95466.14
2017-12-12T04:23:57.728Z,95463.80
2017-12-12T04:24:29.370Z,95474.37
2017-12-12T04:25:01.011Z,95467.89
2017-12-12T04:25:32.653Z,95470.52
2017-12-12T04:26:04.295Z,95474.48
2017-12-12T04:26:35.936Z,95479.28
2017-12-12T04:27:07.602Z,95468.70
2017-12-12T04:27:39.230Z,95479.05
2017-12-12T04:28:11.087Z,95472.27
2017-12-12T04:28:42.763Z,95477.67
2017-12-12T04:29:14.390Z,95480.97
2017-12-12T04:29:46.054Z,95483.56
2017-12-12T04:30:17.678Z,95485.93
2017-12-12T04:30:49.314Z,95496.99
2017-12-12T04:31:20.951Z,95502.92
2017-12-12T04:31:52.578Z,95500.41
2017-12-12T04:32:24.306Z,95496.73
2017-12-12T04:32:55.948Z,95493.72
2017-12-12T04:33:27.589Z,95497.21
2017-12-12T04:33:59.231Z,95495.08
2017-12-12T04:34:30.901Z,95492.97
2017-12-12T04:35:02.527Z,95489.74
2017-12-12T04:35:34.390Z,95487.27
2017-12-12T04:36:06.019Z,95491.98
2017-12-12T04:36:37.655Z,95491.98
2017-12-12T04:37:09.389Z,95496.45
2017-12-12T04:37:41.031Z,95499.05
2017-12-12T04:38:12.700Z,95497.13
2017-12-12T04:38:44.326Z,95494.91
2017-12-12T04:39:15.957Z,95498.36
2017-12-12T04:39:47.598Z,95498.81
2017-12-12T04:40:19.241Z,95494.50
2017-12-12T04:40:50.881Z,95503.32
2017-12-12T04:41:22.525Z,95506.21
2017-12-12T04:41:54.167Z,95504.59
2017-12-12T04:42:25.809Z,95508.24
2017-12-12T04:42:57.450Z,95510.97
2017-12-12T04:43:29.092Z,95515.59
2017-12-12T04:44:00.735Z,95509.52
2017-12-12T04:44:32.384Z,95514.72
2017-12-12T04:45:04.018Z,95512.63
2017-12-12T04:45:35.667Z,95516.00
2017-12-12T04:46:07.307Z,95521.52
2017-12-12T04:46:38.974Z,95524.09
2017-12-12T04:47:10.601Z,95522.83
2017-12-12T04:47:42.235Z,95525.00
2017-12-12T04:48:14.177Z,95531.34
2017-12-12T04:48:45.818Z,95527.96
2017-12-12T04:49:17.460Z,95530.06
2017-12-12T04:49:49.109Z,95531.20
2017-12-12T04:50:20.758Z,95534.13
2017-12-12T04:50:52.387Z,95532.88
2017-12-12T04:51:24.027Z,95540.91
2017-12-12T04:51:55.667Z,95538.02
2017-12-12T04:52:27.301Z,95531.58
2017-12-12T04:52:58.983Z,95536.70
2017-12-12T04:53:30.605Z,95531.30
2017-12-12T04:54:02.238Z,95519.45
2017-12-12T04:54:33.879Z,95529.92
2017-12-12T04:55:05.522Z,95517.39
2017-12-12T04:55:37.164Z,95516.52
2017-12-12T04:56:08.805Z,95510.97
2017-12-12T04:56:40.448Z,95512.25
2017-12-12T04:57:12.088Z,95512.77
2017-12-12T04:57:44.651Z,95513.94
2017-12-12T04:58:16.327Z,95518.20
2017-12-12T04:58:47.950Z,95513.90
2017-12-12T04:59:19.578Z,95515.48
2017-12-12T04:59:51.220Z,95519.64
2017-12-12T05:00:22.859Z,95519.50
2017-12-12T05:00:54.504Z,95526.73
2017-12-12T05:01:26.146Z,95528.43
2017-12-12T05:01:57.788Z,95528.16
2017-12-12T05:02:29.429Z,95531.91
2017-12-12T05:03:01.075Z,95534.95
2017-12-12T05:03:32.748Z,95520.03
2017-12-12T05:04:04.368Z,95525.61
2017-12-12T05:04:36.230Z,95530.78
2017-12-12T05:05:07.886Z,95522.30
2017-12-12T05:05:39.507Z,95515.44
2017-12-12T05:06:11.140Z,95519.54
2017-12-12T05:06:42.872Z,95519.16
2017-12-12T05:07:14.513Z,95514.81
2017-12-12T05:07:46.156Z,95514.40
2017-12-12T05:08:17.798Z,95523.22
2017-12-12T05:08:49.467Z,95512.61
2017-12-12T05:09:21.097Z,95515.61
2017-12-12T05:09:52.964Z,95511.74
2017-12-12T05:10:24.594Z,95507.95
2017-12-12T05:10:56.220Z,95520.36
2017-12-12T05:11:27.956Z,95521.91
2017-12-12T05:11:59.599Z,95527.36
2017-12-12T05:12:31.432Z,95532.94
2017-12-12T05:13:03.189Z,95530.88
2017-12-12T05:13:34.858Z,95535.08
2017-12-12T05:14:06.477Z,95540.80
2017-12-12T05:14:38.117Z,95544.63
2017-12-12T05:15:09.757Z,95548.01
2017-12-12T05:15:41.398Z,95541.94
2017-12-12T05:16:13.043Z,95548.28
2017-12-12T05:16:44.679Z,95547.87
2017-12-12T05:17:16.324Z,95547.91
2017-12-12T05:17:48.007Z,95553.00
2017-12-12T05:18:19.629Z,95549.73
2017-12-12T05:18:51.299Z,95546.59
2017-12-12T05:19:22.927Z,95546.14
2017-12-12T05:19:54.551Z,95543.66
2017-12-12T05:20:26.483Z,95542.31
2017-12-12T05:20:58.110Z,95543.45
2017-12-12T05:21:29.767Z,95544.86
2017-12-12T05:22:01.716Z,95548.73
2017-12-12T05:22:33.357Z,95551.66
2017-12-12T05:23:05.001Z,95554.62
2017-12-12T05:23:36.678Z,95559.31
2017-12-12T05:24:08.302Z,95560.17
2017-12-12T05:24:40.122Z,95561.48
2017-12-12T05:25:11.786Z,95552.56
2017-12-12T05:25:43.517Z,95560.93
2017-12-12T05:26:15.158Z,95558.45
2017-12-12T05:26:46.800Z,95550.80
2017-12-12T05:27:18.446Z,95546.18
2017-12-12T05:27:50.084Z,95543.22
2017-12-12T05:28:21.728Z,95547.00
2017-12-12T05:28:53.399Z,95546.18
2017-12-12T05:29:25.027Z,95550.27
2017-12-12T05:29:56.659Z,95541.31
2017-12-12T05:30:28.288Z,95540.07
2017-12-12T05:30:59.936Z,95544.00
2017-12-12T05:31:31.578Z,95541.49
2017-12-12T05:32:03.215Z,95548.66
2017-12-12T05:32:34.882Z,95551.73
2017-12-12T05:33:06.749Z,95552.25
2017-12-12T05:33:38.387Z,95559.83
2017-12-12T05:34:10.044Z,95558.02
2017-12-12T05:34:41.737Z,95555.28
2017-12-12T05:35:13.377Z,95550.91
2017-12-12T05:35:45.020Z,95553.11
2017-12-12T05:36:16.662Z,95552.73
2017-12-12T05:36:48.303Z,95551.01
2017-12-12T05:37:19.946Z,95554.08
2017-12-12T05:37:51.588Z,95548.98
2017-12-12T05:38:23.227Z,95552.02
2017-12-12T05:38:54.871Z,95552.12
2017-12-12T05:39:26.542Z,95553.70
2017-12-12T05:39:58.172Z,95560.94
2017-12-12T05:40:29.810Z,95559.77
2017-12-12T05:41:01.440Z,95562.25
2017-12-12T05:41:33.078Z,95565.18
2017-12-12T05:42:04.914Z,95561.80
2017-12-12T05:42:36.672Z,95564.39
2017-12-12T05:43:08.313Z,95569.01
2017-12-12T05:43:39.955Z,95558.80
2017-12-12T05:44:11.598Z,95564.14
2017-12-12T05:44:43.286Z,95566.34
2017-12-12T05:45:14.910Z,95565.18
2017-12-12T05:45:46.539Z,95572.28
2017-12-12T05:46:18.167Z,95573.70
2017-12-12T05:46:49.806Z,95568.14
2017-12-12T05:47:21.453Z,95569.77
2017-12-12T05:47:53.090Z,95571.41
2017-12-12T05:48:24.710Z,95565.00
2017-12-12T05:48:56.375Z,95564.17
2017-12-12T05:49:28.017Z,95574.94
2017-12-12T05:49:59.658Z,95580.52
2017-12-12T05:50:31.299Z,95579.34
2017-12-12T05:51:02.942Z,95579.80
2017-12-12T05:51:34.581Z,95577.07
2017-12-12T05:52:06.226Z,95581.48
2017-12-12T05:52:37.858Z,95583.21
2017-12-12T05:53:09.510Z,95579.38
2017-12-12T05:53:41.152Z,95584.03
2017-12-12T05:54:12.793Z,95586.63
2017-12-12T05:54:44.436Z,95585.77
2017-12-12T05:55:16.098Z,95586.66
2017-12-12T05:55:47.771Z,95579.42
2017-12-12T05:56:19.402Z,95585.27
2017-12-12T05:56:51.022Z,95586.89
2017-12-12T05:57:22.651Z,95584.03
2017-12-12T05:57:54.274Z,95588.80
2017-12-12T05:58:25.929Z,95592.92
2017-12-12T05:58:57.570Z,95600.09
2017-12-12T05:59:29.214Z,95601.96
2017-12-12T06:00:00.857Z,95597.38
2017-12-12T06:00:32.497Z,95603.23
2017-12-12T06:01:04.166Z,95602.97
2017-12-12T06:01:35.791Z,95602.52
2017-12-12T06:02:07.425Z,95607.55
2017-12-12T06:02:39.063Z,95607.99
2017-12-12T06:03:10.706Z,95605.38
2017-12-12T06:03:42.347Z,95607.86
2017-12-12T06:04:13.990Z,95615.92
2017-12-12T06:04:45.631Z,95622.05
2017-12-12T06:05:17.274Z,95624.16
2017-12-12T06:05:48.938Z,95623.33
2017-12-12T06:06:20.562Z,95624.61
2017-12-12T06:06:52.506Z,95641.50
2017-12-12T06:07:24.135Z,95641.91
2017-12-12T06:07:55.790Z,95646.15
2017-12-12T06:08:27.432Z,95652.48
2017-12-12T06:08:59.076Z,95649.42
2017-12-12T06:09:30.715Z,95657.14
2017-12-12T06:10:02.379Z,95655.41
2017-12-12T06:10:34.038Z,95655.52
2017-12-12T06:11:05.664Z,95651.70
2017-12-12T06:11:37.285Z,95651.66
2017-12-12T06:12:09.090Z,95650.84